Time;durP1;ratioP1;P1;durP2;ratioP2;P2;SDS_P1;SDS_P2;PMS_P1;PMS_P2;Temp;Humidity;BMP_temperature;BMP_pressure;BME280_temperature;BME280_humidity;BME280_pressure;Samples;Min_cycle;Max_cycle;Signal;HPM_P1;HPM_P2
2023/04/25 00:01:05;;;;;;;2.50;1.50;;;;;;;8.83;74.78;99652.58;110953;1211;138912;-66
2023/04/25 00:03:31;;;;;;;1.70;1.40;;;;;;;8.77;74.71;99655.52;111065;1211;97589;-65
2023/04/25 00:06:01;;;;;;;2.80;1.20;;;;;;;8.72;74.67;99656.52;111198;1206;97665;-65
2023/04/25 00:08:28;;;;;;;1.20;1.10;;;;;;;8.66;74.55;99652.89;111028;1211;138722;-65
2023/04/25 00:10:54;;;;;;;0.90;0.90;;;;;;;8.62;74.49;99655.80;111012;1211;98808;-65
2023/04/25 00:13:20;;;;;;;1.30;1.10;;;;;;;8.58;74.36;99654.04;111072;1216;138058;-65
2023/04/25 00:15:46;;;;;;;1.80;1.20;;;;;;;8.54;74.23;99656.91;111066;1212;97694;-65
2023/04/25 00:18:11;;;;;;;4.20;0.90;;;;;;;8.49;74.03;99651.84;111106;1211;97616;-64
2023/04/25 00:20:36;;;;;;;2.60;1.00;;;;;;;8.44;73.97;99654.58;111029;1211;138138;-65
2023/04/25 00:23:02;;;;;;;4.40;1.00;;;;;;;8.40;73.92;99653.52;111049;1205;97617;-65
2023/04/25 00:25:27;;;;;;;1.30;1.20;;;;;;;8.37;73.92;99659.73;110959;1211;138555;-65
2023/04/25 00:27:52;;;;;;;1.20;0.90;;;;;;;8.34;73.86;99663.42;111070;1209;97606;-66
2023/04/25 00:30:18;;;;;;;5.50;0.90;;;;;;;8.30;73.80;99662.36;111082;1211;97664;-65
2023/04/25 00:32:43;;;;;;;1.80;1.10;;;;;;;8.26;73.72;99666.27;110993;1211;138501;-65
2023/04/25 00:35:09;;;;;;;1.60;1.30;;;;;;;8.24;73.70;99669.77;111042;1211;97652;-65
2023/04/25 00:37:35;;;;;;;4.00;1.20;;;;;;;8.22;73.77;99673.61;110967;1211;138915;-65
2023/04/25 00:40:01;;;;;;;1.20;0.90;;;;;;;8.21;73.75;99669.75;111094;1218;98032;-66
2023/04/25 00:42:26;;;;;;;2.20;1.10;;;;;;;8.19;73.72;99669.16;111083;1211;97703;-65
2023/04/25 00:44:52;;;;;;;1.40;1.00;;;;;;;8.17;73.62;99675.11;110976;1211;140093;-65
2023/04/25 00:47:18;;;;;;;2.20;1.30;;;;;;;8.14;73.66;99676.83;111144;1211;97776;-65
2023/04/25 00:49:43;;;;;;;2.60;1.00;;;;;;;8.12;73.53;99669.98;110846;1207;137984;-65
2023/04/25 00:52:09;;;;;;;0.90;0.80;;;;;;;8.10;73.57;99666.86;111041;1211;97649;-65
2023/04/25 00:54:35;;;;;;;3.70;0.80;;;;;;;8.09;73.56;99668.73;110977;1205;138822;-65
2023/04/25 00:57:01;;;;;;;4.20;1.20;;;;;;;8.08;73.59;99669.68;111026;1211;98054;-65
2023/04/25 00:59:27;;;;;;;1.90;1.10;;;;;;;8.07;73.54;99675.08;111041;1211;98045;-65
2023/04/25 01:01:53;;;;;;;1.70;0.90;;;;;;;8.04;73.55;99674.66;111043;1218;138089;-65
2023/04/25 01:04:18;;;;;;;1.20;1.10;;;;;;;8.02;73.49;99677.41;111070;1211;111380;-65
2023/04/25 01:06:44;;;;;;;11.80;1.30;;;;;;;8.01;73.51;99683.17;110951;1206;138416;-65
2023/04/25 01:09:09;;;;;;;1.80;1.10;;;;;;;8.00;73.51;99681.08;111128;1211;98113;-65
2023/04/25 01:11:34;;;;;;;1.20;1.00;;;;;;;8.00;73.51;99681.27;111035;1206;98419;-65
2023/04/25 01:14:01;;;;;;;1.50;1.10;;;;;;;7.98;73.41;99679.42;111010;1207;138195;-65
2023/04/25 01:16:27;;;;;;;5.00;1.10;;;;;;;7.96;73.54;99681.81;111064;1209;107932;-65
2023/04/25 01:18:54;;;;;;;2.30;1.10;;;;;;;7.93;73.43;99680.70;111001;1206;139126;-65
2023/04/25 01:21:19;;;;;;;16.00;2.50;;;;;;;7.89;73.43;99682.52;111055;1208;97731;-64
2023/04/25 01:23:45;;;;;;;3.30;1.50;;;;;;;7.84;73.52;99673.87;111135;1208;97586;-64
2023/04/25 01:26:12;;;;;;;2.90;1.10;;;;;;;7.79;73.60;99676.79;110983;1211;138986;-64
2023/04/25 01:28:41;;;;;;;3.70;1.50;;;;;;;7.74;73.61;99678.81;111047;1211;97628;-64
2023/04/25 01:31:06;;;;;;;2.10;1.20;;;;;;;7.72;73.58;99678.55;110970;1208;139243;-64
2023/04/25 01:33:32;;;;;;;3.90;1.60;;;;;;;7.69;73.67;99685.27;111014;1211;97638;-64
2023/04/25 01:35:57;;;;;;;8.30;1.80;;;;;;;7.66;73.74;99686.11;111097;1216;97696;-64
2023/04/25 01:38:23;;;;;;;2.40;1.50;;;;;;;7.64;73.84;99686.91;111089;1209;139082;-64
2023/04/25 01:40:50;;;;;;;7.10;2.00;;;;;;;7.61;73.85;99684.56;111150;1205;97723;-64
2023/04/25 01:43:16;;;;;;;5.00;2.20;;;;;;;7.59;73.90;99687.70;110937;1210;139752;-64
2023/04/25 01:45:42;;;;;;;5.00;2.70;;;;;;;7.56;73.96;99689.11;110982;1207;98865;-64
2023/04/25 01:48:09;;;;;;;3.80;1.80;;;;;;;7.52;74.06;99689.64;111081;1211;97752;-64
2023/04/25 01:50:34;;;;;;;3.10;1.80;;;;;;;7.48;74.02;99689.82;110926;1211;139499;-64
2023/04/25 01:53:00;;;;;;;1.80;1.70;;;;;;;7.43;74.25;99686.45;111003;1205;97774;-64
2023/04/25 01:55:26;;;;;;;6.30;2.10;;;;;;;7.40;74.38;99685.73;111028;1211;139889;-64
2023/04/25 01:57:51;;;;;;;2.40;1.90;;;;;;;7.36;74.68;99690.35;111039;1212;97665;-64
2023/04/25 02:00:18;;;;;;;1.80;1.60;;;;;;;7.32;74.71;99689.11;111009;1211;97572;-64
2023/04/25 02:02:43;;;;;;;2.90;1.70;;;;;;;7.30;74.84;99689.39;110964;1211;139178;-64
2023/04/25 02:05:09;;;;;;;4.00;1.70;;;;;;;7.27;75.01;99688.44;111096;1211;97598;-64
2023/04/25 02:07:34;;;;;;;3.00;2.00;;;;;;;7.27;75.14;99687.77;110960;1227;138577;-64
2023/04/25 02:09:59;;;;;;;3.00;2.00;;;;;;;7.25;75.19;99689.95;111115;1211;97688;-64
2023/04/25 02:12:26;;;;;;;2.90;1.80;;;;;;;7.25;75.25;99697.05;111075;1212;97630;-64
2023/04/25 02:14:51;;;;;;;3.00;1.60;;;;;;;7.23;75.41;99698.58;110892;1206;138895;-64
2023/04/25 02:17:17;;;;;;;3.60;2.10;;;;;;;7.22;75.32;99701.83;111244;1208;98747;-64
2023/04/25 02:19:43;;;;;;;3.90;2.00;;;;;;;7.21;75.42;99706.49;111015;1211;137792;-64
2023/04/25 02:22:08;;;;;;;4.60;2.20;;;;;;;7.17;75.56;99704.55;111065;1214;97683;-64
2023/04/25 02:24:34;;;;;;;2.90;2.00;;;;;;;7.15;75.58;99704.27;111036;1212;138803;-63
2023/04/25 02:27:00;;;;;;;4.00;2.30;;;;;;;7.13;75.76;99699.92;111046;1211;97618;-64
2023/04/25 02:29:25;;;;;;;3.30;2.00;;;;;;;7.11;75.74;99699.64;111081;1211;97845;-64
2023/04/25 02:31:50;;;;;;;3.40;2.10;;;;;;;7.09;75.89;99702.77;110860;1211;138098;-64
2023/04/25 02:34:16;;;;;;;6.00;2.00;;;;;;;7.07;75.77;99702.14;111073;1209;97667;-64
2023/04/25 02:36:41;;;;;;;3.80;2.40;;;;;;;7.05;75.90;99703.84;111031;1211;138173;-64
2023/04/25 02:39:06;;;;;;;4.60;2.20;;;;;;;7.03;75.85;99700.16;111053;1211;98310;-64
2023/04/25 02:41:31;;;;;;;3.70;2.40;;;;;;;7.02;75.93;99697.39;111183;1211;97621;-64
2023/04/25 02:43:57;;;;;;;4.60;2.30;;;;;;;7.00;75.93;99702.27;110908;1206;138362;-64
2023/04/25 02:46:22;;;;;;;3.90;2.20;;;;;;;6.99;76.04;99703.36;111085;1206;97699;-64
2023/04/25 02:48:47;;;;;;;5.30;2.60;;;;;;;6.96;76.05;99702.29;111003;1224;138062;-64
2023/04/25 02:51:13;;;;;;;6.00;2.80;;;;;;;6.93;76.24;99706.69;111009;1209;100413;-64
2023/04/25 02:53:39;;;;;;;4.00;2.20;;;;;;;6.91;76.20;99699.83;111169;1209;97766;-64
2023/04/25 02:56:05;;;;;;;3.30;2.30;;;;;;;6.89;76.25;99696.02;110939;1211;138356;-64
2023/04/25 02:58:30;;;;;;;4.50;2.50;;;;;;;6.87;76.26;99692.58;111110;1211;98393;-64
2023/04/25 03:00:55;;;;;;;6.50;2.90;;;;;;;6.83;76.28;99689.00;110966;1209;137996;-64
2023/04/25 03:03:24;;;;;;;4.60;2.60;;;;;;;6.80;76.27;99687.16;111068;1219;97648;-64
2023/04/25 03:05:50;;;;;;;4.20;3.00;;;;;;;6.78;76.26;99689.05;111179;1211;108256;-63
2023/04/25 03:08:17;;;;;;;5.20;2.70;;;;;;;6.73;76.32;99687.10;110945;1219;139743;-64
2023/04/25 03:10:42;;;;;;;4.00;3.10;;;;;;;6.72;76.31;99683.42;111134;1207;98050;-64
2023/04/25 03:13:07;;;;;;;7.90;2.90;;;;;;;6.70;76.43;99689.00;111000;1218;140137;-64
2023/04/25 03:15:35;;;;;;;10.70;3.20;;;;;;;6.68;76.53;99687.70;111074;1211;98756;-64
2023/04/25 03:18:00;;;;;;;4.50;2.50;;;;;;;6.65;76.55;99684.60;111060;1206;98024;-64
2023/04/25 03:20:25;;;;;;;8.00;3.10;;;;;;;6.63;76.68;99687.02;110959;1206;138406;-64
2023/04/25 03:22:51;;;;;;;10.20;3.70;;;;;;;6.61;76.64;99685.15;111014;1211;97710;-64
2023/04/25 03:25:16;;;;;;;6.10;3.80;;;;;;;6.59;76.68;99681.34;110970;1211;138877;-64
2023/04/25 03:27:41;;;;;;;21.00;5.50;;;;;;;6.57;76.71;99681.77;111155;1211;96588;-64
2023/04/25 03:30:07;;;;;;;9.40;4.40;;;;;;;6.56;76.78;99672.42;111097;1211;98370;-64
2023/04/25 03:32:33;;;;;;;5.60;4.20;;;;;;;6.55;76.79;99676.02;111123;1210;137727;-64
2023/04/25 03:34:59;;;;;;;7.50;4.50;;;;;;;6.53;76.73;99676.09;111006;1211;97700;-64
2023/04/25 03:37:24;;;;;;;7.60;4.20;;;;;;;6.50;76.77;99679.37;110956;1209;138794;-64
2023/04/25 03:39:49;;;;;;;5.10;3.30;;;;;;;6.49;76.84;99681.74;111158;1211;97668;-64
2023/04/25 03:42:14;;;;;;;9.10;4.70;;;;;;;6.48;76.97;99683.94;111071;1208;98190;-64
2023/04/25 03:44:40;;;;;;;9.00;4.00;;;;;;;6.47;76.92;99681.28;110952;1206;138070;-65
2023/04/25 03:47:06;;;;;;;11.50;4.20;;;;;;;6.47;77.20;99683.41;111048;1211;97683;-65
2023/04/25 03:49:32;;;;;;;9.30;4.20;;;;;;;6.47;77.01;99688.04;110946;1208;138209;-64
2023/04/25 03:51:58;;;;;;;5.20;4.00;;;;;;;6.46;77.08;99689.13;111110;1211;98234;-64
2023/04/25 03:54:23;;;;;;;4.90;3.90;;;;;;;6.46;77.19;99694.63;111038;1211;98404;-64
2023/04/25 03:56:48;;;;;;;6.20;3.50;;;;;;;6.46;77.24;99696.77;110876;1212;139369;-65
2023/04/25 03:59:14;;;;;;;6.40;3.90;;;;;;;6.46;77.04;99696.60;111077;1209;97583;-64
2023/04/25 04:01:39;;;;;;;10.40;4.10;;;;;;;6.46;77.29;99692.89;110999;1211;140157;-65
2023/04/25 04:04:04;;;;;;;10.90;4.40;;;;;;;6.46;77.29;99694.66;111052;1211;97710;-65
2023/04/25 04:06:30;;;;;;;5.90;4.10;;;;;;;6.46;77.34;99692.70;111065;1219;97585;-64
2023/04/25 04:08:57;;;;;;;7.30;3.80;;;;;;;6.47;77.40;99694.62;110876;1212;138165;-64
2023/04/25 04:11:22;;;;;;;5.10;3.80;;;;;;;6.47;77.58;99693.52;111179;1206;96426;-64
2023/04/25 04:13:47;;;;;;;7.50;5.00;;;;;;;6.49;77.54;99693.11;110927;1222;138795;-64
2023/04/25 04:16:12;;;;;;;8.70;4.40;;;;;;;6.50;77.58;99698.17;111094;1219;97613;-64
2023/04/25 04:18:38;;;;;;;8.80;4.20;;;;;;;6.52;77.68;99698.81;110926;1205;138601;-63
2023/04/25 04:21:03;;;;;;;6.50;4.70;;;;;;;6.54;77.82;99701.40;111050;1211;97651;-64
2023/04/25 04:23:28;;;;;;;13.20;4.60;;;;;;;6.57;77.75;99704.15;111093;1208;97762;-64
2023/04/25 04:25:56;;;;;;;8.00;4.50;;;;;;;6.59;77.94;99710.42;110930;1212;138457;-64
2023/04/25 04:28:22;;;;;;;10.80;4.60;;;;;;;6.63;78.02;99709.22;111078;1211;97735;-64
2023/04/25 04:30:47;;;;;;;9.60;4.00;;;;;;;6.66;78.04;99711.40;111076;1206;139311;-64
2023/04/25 04:33:14;;;;;;;13.30;5.00;;;;;;;6.69;78.11;99711.96;111297;1211;97683;-64
2023/04/25 04:35:41;;;;;;;7.80;4.10;;;;;;;6.71;78.33;99712.23;111003;1212;107956;-64
2023/04/25 04:38:07;;;;;;;7.80;4.40;;;;;;;6.73;78.20;99713.58;110955;1206;138835;-64
2023/04/25 04:40:32;;;;;;;15.90;4.80;;;;;;;6.75;78.34;99717.05;111193;1206;96497;-64
2023/04/25 04:42:57;;;;;;;11.40;4.40;;;;;;;6.78;78.58;99723.12;110894;1222;138111;-64
2023/04/25 04:45:23;;;;;;;7.70;3.80;;;;;;;6.81;78.66;99721.76;111087;1220;97622;-64
2023/04/25 04:47:49;;;;;;;7.10;4.20;;;;;;;6.83;78.67;99723.05;111222;1209;97738;-64
2023/04/25 04:50:16;;;;;;;14.90;5.00;;;;;;;6.88;78.83;99723.25;110981;1212;138412;-64
2023/04/25 04:52:41;;;;;;;10.40;4.90;;;;;;;6.93;78.69;99726.21;111147;1219;97697;-64
2023/04/25 04:55:08;;;;;;;10.60;4.80;;;;;;;6.98;78.88;99723.16;111027;1212;140049;-64
2023/04/25 04:57:35;;;;;;;11.20;4.90;;;;;;;7.01;79.01;99722.48;111248;1208;97563;-64
2023/04/25 05:00:00;;;;;;;11.70;4.90;;;;;;;7.07;78.97;99724.15;111042;1208;97803;-64
2023/04/25 05:02:26;;;;;;;8.60;4.50;;;;;;;7.10;78.96;99720.82;110891;1206;138506;-64
2023/04/25 05:04:52;;;;;;;12.90;4.70;;;;;;;7.16;78.92;99723.78;111429;1206;99047;-64
2023/04/25 05:07:18;;;;;;;8.10;4.70;;;;;;;7.23;79.05;99721.89;110921;1212;139044;-64
2023/04/25 05:09:44;;;;;;;10.30;5.00;;;;;;;7.29;79.03;99725.35;111066;1206;97611;-65
2023/04/25 05:12:09;;;;;;;4.80;3.80;;;;;;;7.33;79.00;99725.13;111107;1211;97678;-65
2023/04/25 05:14:36;;;;;;;8.20;4.20;;;;;;;7.37;79.07;99719.09;110909;1211;139109;-64
2023/04/25 05:17:04;;;;;;;7.80;4.70;;;;;;;7.41;79.17;99721.56;111039;1211;97754;-64
2023/04/25 05:19:30;;;;;;;8.40;4.30;;;;;;;7.46;79.13;99718.67;111053;1209;138012;-64
2023/04/25 05:21:55;;;;;;;5.20;3.90;;;;;;;7.52;79.13;99725.19;111046;1211;97633;-64
2023/04/25 05:24:22;;;;;;;7.00;4.20;;;;;;;7.57;79.23;99724.80;111103;1211;98274;-64
2023/04/25 05:26:47;;;;;;;7.50;4.00;;;;;;;7.58;79.17;99727.58;110940;1211;139941;-64
2023/04/25 05:29:12;;;;;;;10.10;4.70;;;;;;;7.61;79.16;99724.59;111021;1206;98091;-64
2023/04/25 05:31:38;;;;;;;8.80;4.30;;;;;;;7.68;79.13;99723.73;110912;1217;138267;-64
2023/04/25 05:34:03;;;;;;;7.80;4.10;;;;;;;7.77;79.13;99730.79;111020;1211;97709;-64
2023/04/25 05:36:28;;;;;;;5.50;3.80;;;;;;;7.81;78.95;99736.05;111109;1211;97650;-64
2023/04/25 05:38:53;;;;;;;9.80;4.10;;;;;;;7.79;78.87;99731.91;110977;1212;139884;-65
2023/04/25 05:41:19;;;;;;;12.30;4.00;;;;;;;7.81;78.87;99736.09;111057;1208;97691;-65
2023/04/25 05:43:47;;;;;;;9.60;4.10;;;;;;;7.82;78.85;99729.42;110946;1212;138728;-64
2023/04/25 05:46:12;;;;;;;9.00;3.90;;;;;;;7.86;78.75;99736.91;111064;1206;110692;-64
2023/04/25 05:48:39;;;;;;;5.60;3.20;;;;;;;7.87;78.62;99727.61;110933;1208;138478;-64
2023/04/25 05:51:04;;;;;;;9.20;4.00;;;;;;;7.90;78.56;99732.42;111136;1212;97849;-64
2023/04/25 05:53:29;;;;;;;5.40;3.50;;;;;;;7.92;78.38;99735.89;111060;1212;98085;-64
2023/04/25 05:55:56;;;;;;;5.70;3.60;;;;;;;7.97;78.35;99738.52;110945;1206;139984;-65
2023/04/25 05:58:21;;;;;;;6.50;3.90;;;;;;;7.98;78.16;99739.20;110948;1206;97700;-64
2023/04/25 06:00:47;;;;;;;7.40;3.50;;;;;;;8.02;78.14;99740.59;110779;1212;139571;-60
2023/04/25 06:03:14;;;;;;;8.60;3.20;;;;;;;8.12;78.14;99746.88;111007;1209;100998;-61
2023/04/25 06:05:43;;;;;;;11.80;3.20;;;;;;;8.20;78.06;99743.66;111019;1216;97725;-62
2023/04/25 06:08:09;;;;;;;5.60;2.80;;;;;;;8.26;77.83;99745.48;111024;1212;139680;-61
2023/04/25 06:10:36;;;;;;;6.50;3.30;;;;;;;8.27;77.47;99745.08;111136;1212;98128;-61
2023/04/25 06:13:05;;;;;;;8.70;3.40;;;;;;;8.29;77.41;99737.70;110981;1206;139868;-60
2023/04/25 06:15:32;;;;;;;13.40;3.30;;;;;;;8.36;77.38;99744.52;111111;1209;97642;-61
2023/04/25 06:17:58;;;;;;;18.60;4.20;;;;;;;8.41;77.06;99739.08;111090;1212;97758;-61
2023/04/25 06:20:24;;;;;;;14.20;4.00;;;;;;;8.42;76.89;99736.17;111079;1207;140176;-61
2023/04/25 06:22:52;;;;;;;6.10;3.30;;;;;;;8.47;76.86;99736.84;111087;1222;98641;-60
2023/04/25 06:25:17;;;;;;;15.80;3.70;;;;;;;8.53;76.58;99734.77;110981;1219;138530;-60
2023/04/25 06:27:43;;;;;;;9.30;3.20;;;;;;;8.52;76.34;99736.61;111023;1206;97664;-60
2023/04/25 06:30:09;;;;;;;4.40;2.70;;;;;;;8.54;76.26;99735.96;111172;1207;98081;-60
2023/04/25 06:32:35;;;;;;;7.00;3.40;;;;;;;8.57;75.93;99732.60;111036;1212;140085;-61
2023/04/25 06:35:00;;;;;;;6.70;3.20;;;;;;;8.60;75.97;99737.60;110997;1210;97732;-60
2023/04/25 06:37:26;;;;;;;6.80;3.60;;;;;;;8.62;75.73;99737.02;111074;1206;138684;-60
2023/04/25 06:39:51;;;;;;;6.90;3.30;;;;;;;8.63;75.61;99731.92;110991;1206;97724;-60
2023/04/25 06:42:17;;;;;;;13.00;4.20;;;;;;;8.72;75.61;99740.60;111119;1206;100625;-60
2023/04/25 06:44:43;;;;;;;8.90;3.20;;;;;;;8.71;75.07;99733.84;110922;1212;139971;-60
2023/04/25 06:47:08;;;;;;;10.70;3.30;;;;;;;8.69;74.82;99726.30;111060;1212;97721;-60
2023/04/25 06:49:33;;;;;;;5.30;3.00;;;;;;;8.77;75.00;99728.55;110926;1207;139167;-61
2023/04/25 06:51:59;;;;;;;20.90;4.10;;;;;;;8.87;74.70;99722.02;111007;1212;97627;-60
2023/04/25 06:54:24;;;;;;;15.60;3.40;;;;;;;8.95;74.69;99728.52;111157;1206;97767;-60
2023/04/25 06:56:50;;;;;;;37.70;5.10;;;;;;;8.99;74.26;99726.20;110946;1210;138235;-61
2023/04/25 06:59:15;;;;;;;11.10;3.60;;;;;;;9.00;74.21;99733.44;111089;1219;96870;-60
2023/04/25 07:01:40;;;;;;;9.80;3.20;;;;;;;9.01;74.12;99727.01;111037;1212;139475;-60
2023/04/25 07:04:06;;;;;;;11.40;3.80;;;;;;;9.02;74.00;99725.15;111109;1206;97595;-60
2023/04/25 07:06:31;;;;;;;11.50;3.70;;;;;;;9.11;74.15;99728.05;111166;1212;97580;-61
2023/04/25 07:08:56;;;;;;;10.80;3.60;;;;;;;9.19;73.93;99727.63;111071;1216;139639;-60
2023/04/25 07:11:21;;;;;;;14.60;3.80;;;;;;;9.21;73.74;99725.40;111165;1209;97646;-60
2023/04/25 07:13:47;;;;;;;6.90;3.20;;;;;;;9.27;73.78;99728.48;110927;1213;139393;-60
2023/04/25 07:16:12;;;;;;;13.70;4.40;;;;;;;9.35;73.81;99733.23;111107;1212;97689;-60
2023/04/25 07:18:37;;;;;;;12.40;3.50;;;;;;;9.40;73.46;99736.14;111170;1212;98789;-60
2023/04/25 07:21:03;;;;;;;12.00;3.90;;;;;;;9.38;73.20;99735.20;111087;1206;97695;-60
2023/04/25 07:23:28;;;;;;;11.90;3.90;;;;;;;9.40;73.05;99735.61;111050;1206;97604;-61
2023/04/25 07:25:53;;;;;;;8.30;3.30;;;;;;;9.44;73.04;99735.58;110944;1212;140138;-60
2023/04/25 07:28:19;;;;;;;6.20;3.20;;;;;;;9.50;72.99;99732.63;111112;1206;97610;-60
2023/04/25 07:30:44;;;;;;;5.20;2.90;;;;;;;9.58;72.85;99735.22;110704;1212;138900;-61
2023/04/25 07:33:09;;;;;;;14.70;3.50;;;;;;;9.60;72.76;99729.77;110898;1212;96452;-60
2023/04/25 07:35:35;;;;;;;19.00;4.20;;;;;;;9.70;72.90;99729.75;111075;1212;97562;-60
2023/04/25 07:38:02;;;;;;;6.80;3.30;;;;;;;9.84;72.78;99729.19;111042;1212;139357;-61
2023/04/25 07:40:28;;;;;;;20.10;3.90;;;;;;;9.89;72.28;99731.52;111322;1212;97601;-61
2023/04/25 07:42:53;;;;;;;13.00;4.10;;;;;;;9.94;72.43;99735.56;110803;1221;138923;-60
2023/04/25 07:45:18;;;;;;;9.10;3.60;;;;;;;9.97;72.28;99736.28;111046;1206;98880;-60
2023/04/25 07:47:43;;;;;;;14.20;3.80;;;;;;;10.01;72.32;99736.94;110979;1218;98148;-61
2023/04/25 07:50:09;;;;;;;9.70;3.60;;;;;;;10.01;71.95;99732.48;111001;1212;138973;-64
2023/04/25 07:52:35;;;;;;;9.00;3.70;;;;;;;10.05;71.99;99731.00;111167;1211;97599;-64
2023/04/25 07:55:01;;;;;;;12.10;4.00;;;;;;;10.09;71.80;99730.40;110969;1206;138266;-64
2023/04/25 07:57:26;;;;;;;13.20;4.30;;;;;;;10.12;71.84;99730.97;111215;1212;97695;-64
2023/04/25 07:59:52;;;;;;;13.60;3.90;;;;;;;10.21;71.84;99731.02;111016;1212;97699;-63
2023/04/25 08:02:17;;;;;;;9.80;3.20;;;;;;;10.25;71.37;99734.39;111053;1212;138733;-62
2023/04/25 08:04:42;;;;;;;9.90;3.70;;;;;;;10.16;70.80;99736.30;111155;1212;97769;-63
2023/04/25 08:07:07;;;;;;;15.50;4.30;;;;;;;10.10;70.50;99737.67;110958;1212;137594;-64
2023/04/25 08:09:35;;;;;;;7.50;3.60;;;;;;;10.06;70.57;99736.09;111180;1206;97597;-64
2023/04/25 08:12:01;;;;;;;4.80;3.60;;;;;;;10.06;70.38;99730.95;111114;1211;111693;-63
2023/04/25 08:14:27;;;;;;;10.80;4.00;;;;;;;10.14;70.62;99731.95;110974;1206;139575;-64
2023/04/25 08:16:52;;;;;;;10.70;3.20;;;;;;;10.30;70.40;99735.33;111003;1211;97664;-64
2023/04/25 08:19:17;;;;;;;9.80;3.50;;;;;;;10.37;70.01;99736.92;110927;1206;138646;-64
2023/04/25 08:21:42;;;;;;;8.60;3.90;;;;;;;10.51;70.34;99734.27;111029;1218;97695;-65
2023/04/25 08:24:08;;;;;;;9.70;3.60;;;;;;;10.59;69.69;99737.93;111104;1206;97785;-65
2023/04/25 08:26:34;;;;;;;6.60;3.00;;;;;;;10.59;69.59;99745.07;110741;1219;137771;-65
2023/04/25 08:29:00;;;;;;;7.80;3.70;;;;;;;10.58;68.96;99741.02;111010;1212;97682;-64
2023/04/25 08:31:25;;;;;;;7.30;3.20;;;;;;;10.54;68.89;99744.63;110864;1211;137395;-64
2023/04/25 08:33:51;;;;;;;11.80;3.80;;;;;;;10.57;68.87;99746.80;110976;1218;97593;-64
2023/04/25 08:36:17;;;;;;;24.10;5.70;;;;;;;10.69;68.81;99741.63;111158;1206;98577;-63
2023/04/25 08:38:42;;;;;;;11.40;3.80;;;;;;;10.84;69.01;99737.91;110944;1206;138818;-63
2023/04/25 08:41:10;;;;;;;8.40;3.60;;;;;;;10.96;68.38;99748.23;110940;1210;98516;-63
2023/04/25 08:43:37;;;;;;;8.70;3.60;;;;;;;10.93;68.13;99745.05;110827;1212;138429;-63
2023/04/25 08:46:03;;;;;;;24.10;4.60;;;;;;;10.98;68.45;99742.27;110989;1206;97904;-64
2023/04/25 08:48:32;;;;;;;16.50;4.30;;;;;;;11.10;68.26;99746.90;111142;1211;97805;-64
2023/04/25 08:50:58;;;;;;;23.40;4.00;;;;;;;11.18;68.27;99747.50;110853;1210;139403;-64
2023/04/25 08:53:28;;;;;;;13.30;4.00;;;;;;;11.17;67.52;99743.61;111082;1212;98026;-63
2023/04/25 08:55:55;;;;;;;5.70;2.80;;;;;;;11.14;67.20;99747.55;110916;1213;137682;-63
2023/04/25 08:58:21;;;;;;;14.80;3.60;;;;;;;11.04;66.51;99747.80;111101;1212;98243;-64
2023/04/25 09:00:47;;;;;;;22.30;3.90;;;;;;;10.99;66.52;99742.19;110904;1210;137960;-63
2023/04/25 09:03:14;;;;;;;19.90;4.10;;;;;;;11.02;66.26;99748.59;111259;1206;97454;-63
2023/04/25 09:05:40;;;;;;;14.30;4.20;;;;;;;11.06;65.88;99751.96;111072;1212;97639;-63
2023/04/25 09:08:06;;;;;;;8.80;3.30;;;;;;;11.04;65.24;99760.48;110988;1212;137818;-63
2023/04/25 09:10:32;;;;;;;9.70;3.70;;;;;;;10.95;65.15;99769.92;111091;1207;97687;-63
2023/04/25 09:13:11;;;;;;;24.80;4.60;;;;;;;10.91;65.02;99771.25;110983;1212;138042;-63
2023/04/25 09:15:51;;;;;;;78.80;7.30;;;;;;;10.94;65.62;99772.87;111046;1206;98274;-63
2023/04/25 09:18:34;;;;;;;12.60;3.90;;;;;;;11.06;65.33;99773.39;111114;1211;98055;-63
2023/04/25 09:21:10;;;;;;;11.20;3.50;;;;;;;11.03;65.01;99777.17;110935;1206;138831;-62
2023/04/25 09:23:42;;;;;;;26.60;4.20;;;;;;;11.09;65.22;99771.96;111142;1211;100810;-64
2023/04/25 09:26:08;;;;;;;10.20;3.10;;;;;;;11.27;65.09;99780.00;110908;1219;138684;-63
2023/04/25 09:28:34;;;;;;;11.10;3.80;;;;;;;11.22;64.85;99776.38;111098;1212;97752;-63
2023/04/25 09:31:00;;;;;;;12.80;3.40;;;;;;;11.16;64.52;99781.39;110801;1209;138362;-63
2023/04/25 09:33:31;;;;;;;11.30;3.40;;;;;;;11.04;64.20;99784.05;111011;1216;99410;-63
2023/04/25 09:36:04;;;;;;;19.00;3.60;;;;;;;11.08;64.76;99783.84;110979;1212;106701;-62
2023/04/25 09:38:32;;;;;;;40.40;5.50;;;;;;;11.24;64.81;99778.20;110923;1206;138400;-63
2023/04/25 09:40:58;;;;;;;28.40;4.30;;;;;;;11.38;64.75;99778.61;111152;1211;97812;-63
2023/04/25 09:43:24;;;;;;;7.70;3.10;;;;;;;11.40;64.56;99780.68;110964;1212;138019;-62
2023/04/25 09:45:57;;;;;;;7.20;3.10;;;;;;;11.39;64.01;99789.50;111204;1212;97722;-63
2023/04/25 09:48:24;;;;;;;7.80;2.80;;;;;;;11.28;63.56;99787.46;110951;1206;97597;-63
2023/04/25 09:51:10;;;;;;;18.40;3.10;;;;;;;11.20;63.50;99786.54;110877;1212;138148;-63
2023/04/25 09:53:41;;;;;;;14.80;3.40;;;;;;;11.20;63.35;99790.25;111017;1206;111369;-62
2023/04/25 09:56:11;;;;;;;9.90;2.80;;;;;;;11.27;63.53;99788.58;110916;1212;138214;-63
2023/04/25 09:58:38;;;;;;;6.60;2.60;;;;;;;11.41;63.28;99791.17;110940;1211;108947;-64
2023/04/25 10:01:07;;;;;;;10.40;3.00;;;;;;;11.37;62.67;99790.33;110914;1211;138643;-63
2023/04/25 10:03:34;;;;;;;9.30;2.50;;;;;;;11.41;63.04;99789.02;111082;1211;97591;-63
2023/04/25 10:06:04;;;;;;;9.50;2.80;;;;;;;11.50;62.89;99784.39;110945;1212;98853;-63
2023/04/25 10:08:35;;;;;;;4.70;2.90;;;;;;;11.50;62.76;99787.02;110858;1216;138001;-64
2023/04/25 10:11:07;;;;;;;5.90;2.50;;;;;;;11.42;62.72;99787.52;111093;1219;108082;-62
2023/04/25 10:13:32;;;;;;;;;;;;;;;11.36;62.59;99795.40;111030;1211;137971;-62
2023/04/25 10:16:00;;;;;;;9.30;2.70;;;;;;;11.24;62.42;99799.89;110960;1218;97597;-64
2023/04/25 10:18:27;;;;;;;9.20;3.10;;;;;;;11.15;62.04;99807.02;110964;1206;97747;-62
2023/04/25 10:20:56;;;;;;;20.10;4.40;;;;;;;11.13;62.24;99803.59;110986;1212;138119;-64
2023/04/25 10:23:21;;;;;;;10.80;3.10;;;;;;;11.17;62.10;99805.46;111091;1206;97672;-60
2023/04/25 10:25:48;;;;;;;10.30;3.10;;;;;;;11.17;62.03;99802.24;111057;1206;137725;-60
2023/04/25 10:28:14;;;;;;;24.00;3.10;;;;;;;11.20;62.05;99802.61;111055;1206;101377;-60
2023/04/25 10:31:00;;;;;;;76.40;7.30;;;;;;;11.25;61.99;99796.74;110918;1206;139495;-61
2023/04/25 10:33:38;;;;;;;20.70;3.70;;;;;;;11.30;62.13;99799.67;111072;1212;107962;-62
2023/04/25 10:36:17;;;;;;;26.40;3.70;;;;;;;11.38;62.19;99794.56;111056;1211;97340;-63
2023/04/25 10:38:44;;;;;;;28.40;3.30;;;;;;;11.49;61.91;99803.23;110919;1205;138627;-62
2023/04/25 10:41:11;;;;;;;19.50;4.40;;;;;;;11.43;61.41;99797.33;111061;1212;97761;-62
2023/04/25 10:43:41;;;;;;;9.70;2.80;;;;;;;11.34;61.64;99801.94;110986;1210;138808;-62
2023/04/25 10:46:17;;;;;;;5.00;2.40;;;;;;;11.27;61.30;99803.08;110994;1212;107959;-62
2023/04/25 10:48:59;;;;;;;12.70;3.70;;;;;;;11.15;61.01;99803.27;110927;1211;138511;-61
2023/04/25 10:51:32;;;;;;;9.50;2.30;;;;;;;11.07;61.07;99813.23;111050;1212;97623;-62
2023/04/25 10:54:00;;;;;;;7.10;2.60;;;;;;;11.00;61.08;99807.73;111078;1211;111610;-62
2023/04/25 10:56:28;;;;;;;6.90;2.40;;;;;;;10.99;61.16;99809.22;110904;1212;138218;-61
2023/04/25 10:59:03;;;;;;;4.70;2.50;;;;;;;10.94;60.93;99811.27;110961;1212;107924;-60
2023/04/25 11:01:36;;;;;;;12.70;3.70;;;;;;;10.90;61.23;99804.73;110929;1206;138402;-61
2023/04/25 11:04:02;;;;;;;8.10;2.60;;;;;;;10.93;61.19;99804.02;111232;1212;97687;-61
2023/04/25 11:06:47;;;;;;;10.50;2.20;;;;;;;10.94;61.12;99796.97;111048;1206;97555;-61
2023/04/25 11:09:14;;;;;;;5.50;2.60;;;;;;;11.01;61.24;99798.20;113319;1206;99357;-61
2023/04/25 11:11:41;;;;;;;11.30;2.60;;;;;;;11.11;61.14;99801.39;112448;1211;107491;-60
2023/04/25 11:14:07;;;;;;;6.60;2.50;;;;;;;11.20;60.88;99796.71;110825;1211;138561;-60
2023/04/25 11:16:32;;;;;;;15.80;3.00;;;;;;;11.36;61.08;99799.71;111071;1212;97642;-61
2023/04/25 11:18:58;;;;;;;7.60;2.50;;;;;;;11.63;61.33;99796.45;110869;1222;138462;-61
2023/04/25 11:21:26;;;;;;;7.10;2.70;;;;;;;11.89;61.22;99791.09;111151;1212;98153;-61